createdAt,value
2023-02-12T00:01:20.361Z,27.55
2023-02-12T00:03:47.508Z,27.75
2023-02-12T00:06:16.001Z,26.95
2023-02-12T00:08:46.497Z,27.08
2023-02-12T00:11:19.463Z,26.73
2023-02-12T00:13:50.978Z,25.67
2023-02-12T00:16:21.799Z,26.08
2023-02-12T00:21:18.496Z,26.33
2023-02-12T00:23:45.287Z,24.30
2023-02-12T00:26:14.804Z,25.38
2023-02-12T00:28:41.752Z,28.23
2023-02-12T00:31:10.890Z,28.90
2023-02-12T00:33:38.204Z,27.77
2023-02-12T00:38:36.179Z,27.10
2023-02-12T00:41:03.089Z,28.55
2023-02-12T00:43:30.060Z,27.40
2023-02-12T00:45:57.309Z,26.58
2023-02-12T00:48:24.545Z,27.27
2023-02-12T00:50:51.358Z,27.23
2023-02-12T00:53:18.385Z,29.77
2023-02-12T00:55:48.381Z,30.23
2023-02-12T00:58:18.863Z,28.73
2023-02-12T01:00:48.470Z,29.80
2023-02-12T01:03:15.710Z,29.73
2023-02-12T01:05:42.908Z,28.50
2023-02-12T01:08:13.027Z,29.55
2023-02-12T01:10:44.013Z,28.42
2023-02-12T01:13:15.314Z,27.90
2023-02-12T01:15:42.739Z,27.17
2023-02-12T01:18:11.044Z,29.05
2023-02-12T01:20:40.254Z,30.80
2023-02-12T01:23:09.681Z,28.60
2023-02-12T01:25:38.899Z,29.40
2023-02-12T01:28:10.355Z,27.42
2023-02-12T01:30:37.269Z,27.02
2023-02-12T01:33:09.918Z,26.27
2023-02-12T01:35:40.692Z,26.15
2023-02-12T01:40:34.269Z,28.48
2023-02-12T01:43:03.123Z,30.10
2023-02-12T01:45:46.588Z,28.65
2023-02-12T01:48:16.602Z,30.75
2023-02-12T01:50:45.991Z,28.50
2023-02-12T01:53:20.057Z,28.77
2023-02-12T01:55:55.889Z,28.85
2023-02-12T01:58:25.339Z,28.73
2023-02-12T02:00:52.609Z,30.30
2023-02-12T02:03:19.299Z,29.35
2023-02-12T02:05:49.278Z,28.35
2023-02-12T02:08:15.889Z,29.38
2023-02-12T02:10:42.985Z,28.23
2023-02-12T02:13:28.278Z,29.80
2023-02-12T02:16:00.344Z,30.98
2023-02-12T02:18:31.217Z,29.63
2023-02-12T02:26:42.405Z,26.63
2023-02-12T02:29:27.686Z,28.20
2023-02-12T02:32:06.093Z,30.98
2023-02-12T02:34:47.302Z,31.13
2023-02-12T02:37:54.793Z,29.45
2023-02-12T02:40:26.046Z,31.13
2023-02-12T02:43:03.274Z,30.10
2023-02-12T02:45:51.663Z,30.60
2023-02-12T02:48:32.272Z,29.25
2023-02-12T02:53:45.044Z,29.58
2023-02-12T02:56:17.614Z,30.02
2023-02-12T02:58:59.673Z,29.92
2023-02-12T03:01:41.123Z,28.35
2023-02-12T03:04:38.904Z,30.50
2023-02-12T03:07:17.250Z,28.52
2023-02-12T03:09:49.262Z,29.60
2023-02-12T03:12:23.430Z,27.33
2023-02-12T03:15:04.165Z,27.67
2023-02-12T03:17:35.278Z,28.75
2023-02-12T03:20:24.649Z,28.02
2023-02-12T03:22:56.511Z,28.20
2023-02-12T03:25:34.241Z,28.88
2023-02-12T03:28:09.782Z,29.27
2023-02-12T03:30:44.595Z,29.85
2023-02-12T03:33:36.961Z,30.27
2023-02-12T03:36:23.598Z,29.52
2023-02-12T03:38:55.375Z,30.70
2023-02-12T03:41:35.829Z,32.25
2023-02-12T03:44:39.595Z,29.67
2023-02-12T03:47:18.596Z,30.00
2023-02-12T03:49:54.220Z,30.73
2023-02-12T03:52:21.158Z,30.50
2023-02-12T03:54:47.964Z,32.15
2023-02-12T03:57:20.131Z,29.35
2023-02-12T03:59:50.170Z,31.00
2023-02-12T04:02:19.468Z,29.55
2023-02-12T04:04:47.569Z,30.17
2023-02-12T04:07:14.951Z,30.92
2023-02-12T04:09:41.683Z,32.80
2023-02-12T04:12:30.999Z,32.33
2023-02-12T04:17:40.601Z,30.50
2023-02-12T04:20:13.379Z,30.10
2023-02-12T04:23:15.660Z,31.13
2023-02-12T04:25:48.191Z,28.25
2023-02-12T04:31:20.584Z,30.73
2023-02-12T04:36:44.568Z,29.30
2023-02-12T04:39:18.746Z,29.05
2023-02-12T04:41:45.297Z,31.80
2023-02-12T04:44:19.366Z,32.00
2023-02-12T04:46:45.892Z,33.05
2023-02-12T04:49:20.581Z,31.38
2023-02-12T04:51:49.899Z,30.75
2023-02-12T04:54:19.408Z,31.30
2023-02-12T04:56:46.690Z,31.13
2023-02-12T05:01:41.183Z,33.08
2023-02-12T05:04:09.972Z,32.50
2023-02-12T05:06:37.877Z,31.33
2023-02-12T05:09:06.234Z,31.08
2023-02-12T05:11:32.949Z,31.48
2023-02-12T05:14:00.058Z,32.38
2023-02-12T05:16:26.960Z,31.30
2023-02-12T05:18:53.443Z,31.88
2023-02-12T05:21:20.007Z,29.17
2023-02-12T05:23:46.482Z,29.25
2023-02-12T05:26:16.436Z,26.67
2023-02-12T05:28:43.108Z,27.00
2023-02-12T05:31:13.612Z,28.52
2023-02-12T05:33:43.895Z,27.27
2023-02-12T05:36:13.759Z,29.88
2023-02-12T05:38:40.375Z,29.50
2023-02-12T05:41:10.086Z,28.35
2023-02-12T05:43:37.129Z,29.30
2023-02-12T05:46:06.521Z,30.20
2023-02-12T05:48:34.200Z,28.90
2023-02-12T05:51:13.764Z,29.25
2023-02-12T05:53:41.312Z,30.92
2023-02-12T05:56:17.565Z,30.25
2023-02-12T05:58:47.263Z,30.60
2023-02-12T06:01:20.280Z,29.73
2023-02-12T06:03:47.642Z,31.08
2023-02-12T06:06:15.318Z,30.15
2023-02-12T06:08:48.535Z,32.08
2023-02-12T06:11:16.768Z,32.80
2023-02-12T06:13:46.955Z,32.42
2023-02-12T06:16:20.002Z,31.50
2023-02-12T06:18:47.015Z,32.63
2023-02-12T06:21:14.153Z,32.92
2023-02-12T06:23:43.556Z,33.13
2023-02-12T06:26:10.558Z,32.78
2023-02-12T06:28:37.490Z,33.38
2023-02-12T06:31:04.990Z,34.53
2023-02-12T06:33:33.103Z,35.28
2023-02-12T06:36:03.968Z,32.60
2023-02-12T06:41:02.470Z,33.28
2023-02-12T06:43:29.788Z,32.42
2023-02-12T06:45:57.053Z,33.72
2023-02-12T06:48:26.214Z,34.20
2023-02-12T06:50:53.169Z,34.20
2023-02-12T06:53:19.966Z,35.17
2023-02-12T06:55:46.788Z,34.53
2023-02-12T06:58:13.663Z,34.25
2023-02-12T07:00:41.921Z,37.20
2023-02-12T07:05:38.004Z,34.47
2023-02-12T07:08:05.198Z,34.42
2023-02-12T07:10:32.084Z,38.47
2023-02-12T07:12:58.875Z,38.40
2023-02-12T07:15:28.187Z,36.20
2023-02-12T07:18:35.539Z,35.65
2023-02-12T07:21:05.891Z,35.42
2023-02-12T07:23:33.714Z,35.33
2023-02-12T07:26:09.827Z,35.95
2023-02-12T07:28:52.582Z,36.08
2023-02-12T07:31:22.261Z,36.85
2023-02-12T07:36:24.086Z,36.83
2023-02-12T07:41:23.099Z,35.85
2023-02-12T07:46:42.366Z,34.70
2023-02-12T07:49:14.155Z,35.30
2023-02-12T07:51:41.511Z,35.40
2023-02-12T07:54:14.907Z,37.72
2023-02-12T07:56:44.660Z,33.78
2023-02-12T07:59:13.690Z,35.08
2023-02-12T08:01:53.886Z,36.65
2023-02-12T08:04:24.151Z,37.60
2023-02-12T08:07:10.220Z,38.13
2023-02-12T08:09:40.234Z,33.00
2023-02-12T08:14:34.930Z,35.08
2023-02-12T08:17:04.474Z,35.90
2023-02-12T08:19:31.453Z,37.42
2023-02-12T08:21:58.816Z,35.10
2023-02-12T08:24:26.221Z,35.25
2023-02-12T08:26:54.192Z,34.95
2023-02-12T08:29:31.369Z,35.47
2023-02-12T08:32:02.443Z,36.53
2023-02-12T08:34:37.051Z,33.60
2023-02-12T08:37:08.506Z,33.25
2023-02-12T08:39:35.499Z,32.83
2023-02-12T08:42:02.540Z,34.05
2023-02-12T08:44:35.768Z,34.95
2023-02-12T08:47:13.798Z,35.25
2023-02-12T08:50:07.665Z,34.33
2023-02-12T08:52:45.866Z,34.97
2023-02-12T08:55:19.877Z,36.22
2023-02-12T08:57:46.909Z,36.85
2023-02-12T09:00:14.442Z,34.70
2023-02-12T09:02:44.785Z,35.47
2023-02-12T09:05:16.925Z,36.33
2023-02-12T09:07:44.418Z,35.05
2023-02-12T09:10:24.517Z,36.25
2023-02-12T09:12:56.995Z,34.35
2023-02-12T09:15:23.942Z,33.42
2023-02-12T09:17:54.673Z,34.70
2023-02-12T09:20:22.030Z,34.50
2023-02-12T09:22:51.230Z,33.75
2023-02-12T09:25:23.116Z,34.85
2023-02-12T09:27:52.913Z,31.48
2023-02-12T09:30:25.357Z,32.28
2023-02-12T09:32:56.321Z,32.40
2023-02-12T09:35:31.625Z,32.95
2023-02-12T09:37:58.794Z,34.10
2023-02-12T09:40:42.190Z,34.90
2023-02-12T09:43:30.079Z,33.13
2023-02-12T09:46:47.387Z,33.42
2023-02-12T09:49:16.468Z,32.25
2023-02-12T09:51:54.079Z,34.08
2023-02-12T09:54:26.366Z,32.78
2023-02-12T09:57:03.714Z,33.35
2023-02-12T09:59:45.410Z,33.28
2023-02-12T10:02:19.648Z,32.33
2023-02-12T10:05:04.616Z,30.25
2023-02-12T10:07:40.156Z,30.33
2023-02-12T10:10:28.493Z,29.75
2023-02-12T10:13:04.413Z,29.20
2023-02-12T10:15:49.439Z,31.58
2023-02-12T10:18:26.249Z,32.15
2023-02-12T10:21:22.748Z,29.95
2023-02-12T10:24:35.203Z,30.35
2023-02-12T10:27:24.095Z,29.23
2023-02-12T10:29:52.217Z,30.30
2023-02-12T10:32:31.161Z,31.80
2023-02-12T10:34:59.850Z,29.67
2023-02-12T10:37:40.634Z,29.95
2023-02-12T10:40:26.492Z,30.00
2023-02-12T10:42:56.417Z,29.90
2023-02-12T10:45:35.712Z,30.77
2023-02-12T10:48:21.678Z,29.15
2023-02-12T10:53:42.121Z,29.10
2023-02-12T10:56:24.913Z,28.25
2023-02-12T10:58:55.973Z,28.05
2023-02-12T11:01:26.167Z,27.58
2023-02-12T11:03:55.332Z,26.60
2023-02-12T11:06:25.974Z,27.85
2023-02-12T11:11:34.120Z,26.42
2023-02-12T11:14:06.298Z,26.60
2023-02-12T11:17:03.145Z,25.13
2023-02-12T11:19:32.589Z,26.27
2023-02-12T11:22:21.002Z,25.17
2023-02-12T11:25:04.995Z,25.65
2023-02-12T11:27:41.960Z,27.70
2023-02-12T11:30:23.007Z,25.98
2023-02-12T11:32:53.386Z,23.77
2023-02-12T11:35:29.710Z,27.00
2023-02-12T11:37:58.825Z,26.77
2023-02-12T11:40:31.439Z,28.30
2023-02-12T11:43:02.015Z,27.40
2023-02-12T11:45:42.030Z,28.20
2023-02-12T11:48:43.943Z,26.65
2023-02-12T11:53:51.752Z,25.55
2023-02-12T11:56:19.302Z,26.35
2023-02-12T11:58:47.941Z,28.48
2023-02-12T12:01:43.729Z,28.73
2023-02-12T12:04:17.986Z,25.45
2023-02-12T12:06:54.314Z,24.60
2023-02-12T12:09:39.857Z,24.25
2023-02-12T12:12:06.756Z,24.85
2023-02-12T12:15:08.893Z,25.08
2023-02-12T12:18:08.938Z,25.98
2023-02-12T12:21:15.505Z,24.33
2023-02-12T12:26:48.006Z,24.45
2023-02-12T12:29:28.834Z,24.98
2023-02-12T12:34:32.753Z,27.27
2023-02-12T12:37:12.445Z,27.17
2023-02-12T12:40:20.347Z,26.70
2023-02-12T12:42:56.454Z,27.13
2023-02-12T12:45:40.796Z,26.65
2023-02-12T12:48:35.841Z,25.70
2023-02-12T12:51:13.011Z,25.77
2023-02-12T12:56:38.906Z,28.15
2023-02-12T12:59:30.349Z,28.25
2023-02-12T13:02:32.143Z,27.15
2023-02-12T13:05:22.287Z,27.73
2023-02-12T13:08:22.730Z,28.20
2023-02-12T13:11:07.028Z,28.98
2023-02-12T13:13:45.981Z,27.40
2023-02-12T13:16:23.577Z,27.30
2023-02-12T13:19:01.653Z,25.83
2023-02-12T13:21:44.337Z,25.50
2023-02-12T13:24:39.032Z,26.35
2023-02-12T13:27:20.335Z,27.60
2023-02-12T13:29:59.241Z,28.10
2023-02-12T13:32:32.730Z,26.90
2023-02-12T13:35:01.362Z,28.25
2023-02-12T13:37:57.267Z,28.77
2023-02-12T13:46:04.477Z,26.75
2023-02-12T13:48:43.458Z,25.85
2023-02-12T13:51:51.192Z,27.50
2023-02-12T13:54:56.747Z,26.23
2023-02-12T14:00:51.935Z,25.17
2023-02-12T14:03:34.757Z,26.08
2023-02-12T14:06:29.334Z,25.42
2023-02-12T14:09:27.179Z,25.08
2023-02-12T14:14:36.810Z,23.48
2023-02-12T14:17:38.527Z,23.45
2023-02-12T14:23:03.201Z,24.80
2023-02-12T14:25:33.982Z,22.60
2023-02-12T14:30:59.086Z,23.25
2023-02-12T14:33:31.145Z,23.15
2023-02-12T14:36:40.325Z,22.13
2023-02-12T14:44:48.929Z,25.42
2023-02-12T14:47:45.044Z,27.50
2023-02-12T14:50:24.249Z,28.42
2023-02-12T14:55:50.170Z,25.65
2023-02-12T15:06:12.288Z,24.73
2023-02-12T15:09:03.254Z,24.92
2023-02-12T15:11:33.096Z,24.45
2023-02-12T15:14:31.305Z,23.95
2023-02-12T15:17:24.919Z,25.00
2023-02-12T15:20:06.199Z,27.55
2023-02-12T15:22:51.113Z,24.05
2023-02-12T15:25:35.214Z,25.23
2023-02-12T15:33:33.014Z,25.38
2023-02-12T15:36:11.272Z,24.65
2023-02-12T15:38:59.184Z,24.40
2023-02-12T15:41:30.166Z,24.65
2023-02-12T15:43:57.433Z,23.05
2023-02-12T15:46:28.028Z,24.52
2023-02-12T15:49:19.654Z,25.23
2023-02-12T15:51:49.079Z,23.95
2023-02-12T15:54:20.105Z,23.02
2023-02-12T15:56:50.220Z,23.13
2023-02-12T15:59:29.214Z,25.50
2023-02-12T16:02:02.666Z,24.17
2023-02-12T16:04:33.402Z,22.13
2023-02-12T16:07:01.663Z,24.20
2023-02-12T16:09:37.807Z,24.52
2023-02-12T16:12:17.338Z,25.60
2023-02-12T16:14:53.043Z,24.70
2023-02-12T16:17:33.677Z,25.15
2023-02-12T16:20:04.377Z,26.77
2023-02-12T16:22:49.769Z,26.23
2023-02-12T16:25:27.857Z,26.58
2023-02-12T16:30:39.502Z,25.23
2023-02-12T16:34:00.812Z,26.00
2023-02-12T16:36:32.047Z,25.77
2023-02-12T16:39:12.054Z,25.45
2023-02-12T16:41:55.236Z,25.65
2023-02-12T16:44:27.952Z,25.83
2023-02-12T16:47:31.308Z,27.45
2023-02-12T16:50:02.336Z,27.95
2023-02-12T16:52:43.364Z,28.17
2023-02-12T16:55:18.102Z,26.05
2023-02-12T16:57:45.722Z,27.52
2023-02-12T17:00:17.281Z,26.15
2023-02-12T17:02:44.260Z,25.27
2023-02-12T17:05:17.018Z,27.60
2023-02-12T17:07:46.173Z,27.67
2023-02-12T17:12:49.604Z,28.27
2023-02-12T17:15:27.208Z,26.38
2023-02-12T17:17:57.159Z,26.17
2023-02-12T17:20:28.364Z,24.40
2023-02-12T17:22:57.971Z,26.25
2023-02-12T17:25:25.529Z,25.08
2023-02-12T17:27:54.831Z,25.08
2023-02-12T17:30:22.117Z,26.48
2023-02-12T17:32:51.173Z,25.08
2023-02-12T17:37:52.023Z,25.75
2023-02-12T17:40:19.385Z,26.38
2023-02-12T17:42:49.101Z,26.70
2023-02-12T17:47:58.991Z,26.40
2023-02-12T17:50:31.667Z,25.65
2023-02-12T17:53:20.522Z,25.70
2023-02-12T17:55:52.163Z,24.58
2023-02-12T17:58:30.549Z,23.67
2023-02-12T18:00:58.216Z,26.52
2023-02-12T18:03:27.448Z,26.17
2023-02-12T18:05:54.774Z,25.95
2023-02-12T18:08:34.432Z,27.83
2023-02-12T18:11:10.171Z,26.05
2023-02-12T18:13:38.108Z,26.35
2023-02-12T18:16:58.694Z,26.23
2023-02-12T18:19:33.392Z,36.10
2023-02-12T18:22:10.222Z,32.22
2023-02-12T18:24:47.065Z,26.60
2023-02-12T18:27:34.040Z,26.70
2023-02-12T18:30:04.960Z,24.45
2023-02-12T18:35:01.231Z,25.42
2023-02-12T18:37:29.078Z,25.73
2023-02-12T18:40:03.304Z,25.10
2023-02-12T18:42:35.261Z,25.40
2023-02-12T18:45:31.005Z,24.92
2023-02-12T18:48:09.377Z,27.15
2023-02-12T18:50:45.194Z,30.70
2023-02-12T18:53:25.089Z,30.50
2023-02-12T18:56:09.170Z,28.60
2023-02-12T18:58:43.632Z,26.75
2023-02-12T19:03:57.550Z,27.50
2023-02-12T19:06:40.724Z,27.33
2023-02-12T19:14:39.039Z,28.30
2023-02-12T19:17:08.970Z,27.38
2023-02-12T19:20:07.331Z,28.25
2023-02-12T19:22:39.145Z,29.48
2023-02-12T19:25:13.341Z,28.70
2023-02-12T19:27:42.812Z,29.13
2023-02-12T19:30:28.350Z,29.08
2023-02-12T19:32:57.686Z,27.02
2023-02-12T19:35:24.591Z,25.25
2023-02-12T19:37:54.032Z,26.17
2023-02-12T19:40:25.435Z,25.90
2023-02-12T19:42:59.484Z,25.02
2023-02-12T19:45:34.000Z,28.85
2023-02-12T19:50:48.156Z,25.83
2023-02-12T19:53:22.143Z,28.63
2023-02-12T19:55:51.760Z,30.23
2023-02-12T19:58:18.663Z,28.88
2023-02-12T20:00:46.468Z,28.50
2023-02-12T20:06:10.738Z,30.52
2023-02-12T20:08:46.256Z,29.55
2023-02-12T20:13:58.276Z,30.25
2023-02-12T20:16:31.359Z,29.35
2023-02-12T20:19:07.498Z,31.35
2023-02-12T20:21:37.383Z,30.23
2023-02-12T20:24:04.874Z,29.20
2023-02-12T20:26:33.754Z,29.83
2023-02-12T20:29:06.689Z,31.40
2023-02-12T20:31:43.286Z,27.30
2023-02-12T20:34:15.842Z,28.92
2023-02-12T20:41:51.468Z,29.13
2023-02-12T20:44:29.921Z,29.42
2023-02-12T20:49:43.541Z,28.35
2023-02-12T20:52:13.548Z,29.17
2023-02-12T20:54:42.882Z,28.83
2023-02-12T20:57:16.845Z,29.40
2023-02-12T20:59:43.855Z,26.83
2023-02-12T21:05:09.688Z,29.80
2023-02-12T21:07:36.550Z,29.00
2023-02-12T21:10:04.830Z,29.20
2023-02-12T21:12:31.900Z,31.33
2023-02-12T21:14:58.940Z,31.23
2023-02-12T21:17:26.055Z,31.10
2023-02-12T21:19:53.037Z,27.50
2023-02-12T21:22:21.488Z,27.08
2023-02-12T21:24:56.064Z,30.95
2023-02-12T21:27:23.102Z,30.10
2023-02-12T21:29:50.103Z,26.95
2023-02-12T21:32:20.390Z,27.05
2023-02-12T21:34:48.874Z,28.92
2023-02-12T21:42:37.283Z,26.70
2023-02-12T21:45:08.393Z,28.13
2023-02-12T21:47:38.263Z,28.75
2023-02-12T21:50:08.488Z,27.80
2023-02-12T21:52:44.590Z,28.13
2023-02-12T21:57:48.179Z,29.70
2023-02-12T22:00:20.275Z,30.00
2023-02-12T22:02:47.173Z,28.98
2023-02-12T22:05:14.187Z,29.13
2023-02-12T22:07:41.071Z,30.83
2023-02-12T22:10:09.551Z,32.28
2023-02-12T22:12:46.794Z,30.23
2023-02-12T22:15:13.885Z,28.92
2023-02-12T22:17:41.239Z,27.70
2023-02-12T22:20:11.140Z,29.77
2023-02-12T22:22:38.415Z,31.52
2023-02-12T22:25:05.689Z,31.75
2023-02-12T22:27:37.567Z,30.20
2023-02-12T22:30:13.559Z,30.13
2023-02-12T22:32:47.888Z,29.02
2023-02-12T22:35:15.148Z,31.33
2023-02-12T22:37:49.597Z,30.63
2023-02-12T22:40:16.494Z,28.90
2023-02-12T22:42:43.529Z,30.17
2023-02-12T22:45:10.567Z,30.55
2023-02-12T22:47:42.570Z,32.33
2023-02-12T22:50:12.587Z,33.53
2023-02-12T22:52:40.668Z,31.25
2023-02-12T22:55:07.662Z,33.00
2023-02-12T22:57:37.083Z,31.77
2023-02-12T23:00:08.447Z,29.08
2023-02-12T23:02:39.200Z,29.55
2023-02-12T23:05:06.010Z,31.63
2023-02-12T23:07:41.361Z,29.13
2023-02-12T23:10:08.990Z,29.02
2023-02-12T23:12:43.020Z,28.77
2023-02-12T23:15:10.507Z,27.25
2023-02-12T23:17:37.719Z,29.65
2023-02-12T23:20:14.579Z,27.90
2023-02-12T23:22:41.720Z,26.00
2023-02-12T23:25:08.630Z,28.13
2023-02-12T23:27:35.517Z,27.65
2023-02-12T23:30:02.440Z,30.40
2023-02-12T23:35:00.327Z,28.83
2023-02-12T23:37:27.422Z,26.52
2023-02-12T23:40:01.699Z,28.75
2023-02-12T23:42:28.821Z,27.58
2023-02-12T23:44:56.983Z,28.85
2023-02-12T23:47:27.195Z,27.73
2023-02-12T23:49:56.055Z,27.45
2023-02-12T23:52:23.161Z,27.10
2023-02-12T23:54:52.314Z,29.75
2023-02-12T23:57:19.460Z,28.25
2023-02-12T23:59:47.623Z,25.25
